Time;durP1;ratioP1;P1;durP2;ratioP2;P2;SDS_P1;SDS_P2;PMS_P1;PMS_P2;Temp;Humidity;BMP_temperature;BMP_pressure;BME280_temperature;BME280_humidity;BME280_pressure;Samples;Min_cycle;Max_cycle;Signal;HPM_P1;HPM_P2
2022/05/14 00:00:49;;;;;;;34.05;14.30;;;11.50;83.00;;;;;;4805300;29;20045;-68
2022/05/14 00:03:15;;;;;;;32.67;29.07;;;11.50;82.90;;;;;;4819496;29;20508;-68
2022/05/14 00:05:42;;;;;;;33.72;21.85;;;11.50;83.40;;;;;;4820511;29;20148;-68
2022/05/14 00:08:09;;;;;;;31.88;18.40;;;11.50;83.40;;;;;;4853335;29;20054;-68
2022/05/14 00:13:03;;;;;;;36.65;18.83;;;11.40;83.80;;;;;;4858272;29;20519;-68
2022/05/14 00:13:22;;;;;;;32.50;18.55;;;11.40;83.80;;;;;;4817920;29;20196;-68
2022/05/14 00:15:48;;;;;;;45.42;22.65;;;11.30;83.70;;;;;;4850348;29;20038;-68
2022/05/14 00:18:14;;;;;;;38.87;22.40;;;11.30;84.10;;;;;;4857674;29;20061;-68
2022/05/14 00:20:40;;;;;;;32.23;16.60;;;11.20;84.30;;;;;;4815664;29;20077;-69
2022/05/14 00:23:06;;;;;;;32.43;27.13;;;11.20;84.70;;;;;;4812558;29;20047;-68
2022/05/14 00:25:33;;;;;;;41.45;21.05;;;11.20;85.20;;;;;;4843839;29;20046;-68
2022/05/14 00:27:59;;;;;;;48.88;23.80;;;11.20;85.00;;;;;;4802143;29;20073;-69
2022/05/14 00:30:28;;;;;;;35.47;22.53;;;11.10;84.80;;;;;;4812653;29;20080;-69
2022/05/14 00:32:54;;;;;;;34.13;20.15;;;11.10;84.80;;;;;;4817906;29;20053;-69
2022/05/14 00:35:21;;;;;;;32.58;21.30;;;11.10;84.90;;;;;;4849061;29;20046;-69
2022/05/14 00:37:47;;;;;;;39.72;21.98;;;11.00;85.10;;;;;;4819647;29;20054;-69
2022/05/14 00:40:21;;;;;;;43.45;20.98;;;11.00;85.10;;;;;;4828810;29;20061;-69
2022/05/14 00:42:47;;;;;;;34.38;15.35;;;11.00;85.20;;;;;;4831226;29;20289;-68
2022/05/14 00:45:14;;;;;;;35.57;16.77;;;11.00;85.00;;;;;;4824930;29;20047;-68
2022/05/14 00:47:42;;;;;;;43.45;27.17;;;10.90;85.00;;;;;;4801136;29;20070;-69
2022/05/14 00:50:21;;;;;;;45.65;21.30;;;10.90;85.40;;;;;;4807213;29;20499;-69
2022/05/14 00:52:47;;;;;;;34.40;18.67;;;10.90;85.60;;;;;;4848662;29;20089;-69
2022/05/14 00:55:13;;;;;;;33.90;17.83;;;10.90;85.60;;;;;;4802662;29;20150;-69
2022/05/14 00:57:41;;;;;;;43.57;28.50;;;10.90;85.50;;;;;;4807709;29;20574;-69
2022/05/14 01:00:17;;;;;;;41.50;19.08;;;10.90;85.20;;;;;;4808615;29;20487;-69
2022/05/14 01:02:42;;;;;;;39.80;17.88;;;10.90;85.60;;;;;;4812114;29;20048;-69
2022/05/14 01:05:10;;;;;;;35.83;19.30;;;11.00;85.70;;;;;;4824355;29;20681;-69
2022/05/14 01:07:37;;;;;;;42.72;19.55;;;11.00;85.80;;;;;;4802008;29;20051;-69
2022/05/14 01:10:06;;;;;;;44.85;20.60;;;10.90;85.70;;;;;;4809908;29;20073;-69
2022/05/14 01:12:32;;;;;;;38.92;22.23;;;10.90;85.70;;;;;;4848573;29;20124;-68
2022/05/14 01:15:15;;;;;;;38.20;21.02;;;10.90;85.50;;;;;;4846240;29;20047;-68
2022/05/14 01:17:42;;;;;;;39.42;21.10;;;10.80;85.60;;;;;;4847012;29;20404;-69
2022/05/14 01:20:08;;;;;;;35.88;20.38;;;10.70;85.60;;;;;;4800648;29;20146;-69
2022/05/14 01:23:01;;;;;;;38.30;19.75;;;10.70;85.60;;;;;;4819867;29;20520;-69
2022/05/14 01:26:28;;;;;;;34.03;18.20;;;10.60;85.40;;;;;;4818927;29;20196;-68
2022/05/14 01:29:05;;;;;;;42.28;20.17;;;10.50;85.10;;;;;;4810909;29;20364;-68
2022/05/14 01:31:31;;;;;;;40.22;23.52;;;10.40;85.30;;;;;;4845478;29;20038;-69
2022/05/14 01:34:05;;;;;;;46.13;21.98;;;10.40;85.80;;;;;;4818284;29;20054;-69
2022/05/14 01:36:32;;;;;;;42.05;22.75;;;10.30;86.30;;;;;;4818998;29;20264;-69
2022/05/14 01:38:58;;;;;;;41.65;21.40;;;10.20;86.30;;;;;;4816107;29;20482;-69
2022/05/14 01:41:24;;;;;;;37.33;24.57;;;10.20;86.40;;;;;;4814227;29;20054;-69
2022/05/14 01:43:51;;;;;;;34.97;21.07;;;10.10;86.50;;;;;;4805147;29;20089;-69
2022/05/14 01:46:17;;;;;;;46.85;24.55;;;10.10;86.40;;;;;;4819057;29;20049;-68
2022/05/14 01:48:43;;;;;;;41.90;28.58;;;10.00;86.30;;;;;;4854899;29;20128;-68
2022/05/14 01:51:09;;;;;;;36.10;20.70;;;10.00;86.40;;;;;;4802192;29;20083;-68
2022/05/14 01:53:35;;;;;;;42.53;25.43;;;10.00;86.20;;;;;;4820565;29;20151;-68
2022/05/14 01:56:00;;;;;;;37.13;22.13;;;9.90;86.60;;;;;;4814363;29;20042;-69
2022/05/14 01:58:38;;;;;;;40.43;24.90;;;9.90;87.00;;;;;;4811986;29;20052;-69
2022/05/14 02:01:14;;;;;;;45.08;22.23;;;9.90;87.40;;;;;;4811682;29;20096;-68
2022/05/14 02:03:49;;;;;;;35.78;23.08;;;9.80;87.60;;;;;;4819557;29;20054;-68
2022/05/14 02:06:15;;;;;;;46.67;17.65;;;9.80;87.40;;;;;;4833116;29;20057;-68
2022/05/14 02:08:41;;;;;;;44.83;23.25;;;9.70;87.10;;;;;;4806849;29;20054;-68
2022/05/14 02:11:08;;;;;;;40.30;21.25;;;9.70;87.10;;;;;;4826540;29;20137;-68
2022/05/14 02:13:35;;;;;;;38.70;22.40;;;9.70;87.10;;;;;;4804586;29;20053;-69
2022/05/14 02:16:01;;;;;;;46.25;26.10;;;9.60;87.10;;;;;;4846687;29;20095;-68
2022/05/14 02:18:27;;;;;;;51.60;19.95;;;9.60;86.90;;;;;;4823965;29;20305;-68
2022/05/14 02:20:53;;;;;;;42.27;25.67;;;9.60;87.00;;;;;;4818518;29;20053;-68
2022/05/14 02:23:19;;;;;;;57.70;24.97;;;9.60;87.60;;;;;;4833120;29;20515;-68
2022/05/14 02:25:45;;;;;;;57.10;25.50;;;9.50;87.40;;;;;;4805359;29;20050;-68
2022/05/14 02:28:11;;;;;;;54.85;26.63;;;9.50;87.60;;;;;;4801564;29;20480;-69
2022/05/14 02:30:37;;;;;;;53.20;27.70;;;9.50;88.10;;;;;;4801963;29;20419;-68
2022/05/14 02:33:04;;;;;;;51.88;26.23;;;9.50;88.30;;;;;;4819344;29;20046;-69
2022/05/14 02:35:29;;;;;;;53.97;20.27;;;9.50;88.90;;;;;;4819791;29;20050;-68
2022/05/14 02:37:55;;;;;;;46.97;22.13;;;9.50;89.30;;;;;;4820621;29;20415;-68
2022/05/14 02:40:21;;;;;;;45.30;20.03;;;9.50;89.00;;;;;;4800572;29;20538;-68
2022/05/14 02:42:47;;;;;;;46.17;21.40;;;9.50;88.80;;;;;;4813238;29;20447;-68
2022/05/14 02:45:14;;;;;;;47.80;22.50;;;9.40;88.90;;;;;;4805329;29;20122;-68
2022/05/14 02:47:40;;;;;;;39.50;19.00;;;9.40;88.80;;;;;;4845860;29;20509;-68
2022/05/14 02:50:08;;;;;;;46.75;22.05;;;9.40;88.60;;;;;;4853226;29;20440;-68
2022/05/14 02:52:34;;;;;;;45.60;21.27;;;9.30;88.60;;;;;;4819796;29;20298;-68
2022/05/14 02:55:00;;;;;;;45.58;19.20;;;9.30;88.80;;;;;;4804620;29;20086;-68
2022/05/14 02:57:26;;;;;;;49.83;18.67;;;9.30;88.80;;;;;;4812754;29;20542;-68
2022/05/14 02:59:51;;;;;;;47.20;21.17;;;9.20;88.80;;;;;;4830339;29;20137;-69
2022/05/14 03:02:18;;;;;;;56.53;20.77;;;9.20;88.90;;;;;;4817802;29;20061;-69
2022/05/14 03:04:44;;;;;;;52.42;21.90;;;9.20;89.00;;;;;;4840663;29;20081;-68
2022/05/14 03:07:11;;;;;;;47.88;20.77;;;9.20;89.00;;;;;;4818983;29;20073;-68
2022/05/14 03:09:38;;;;;;;56.70;23.08;;;9.20;89.30;;;;;;4840410;29;20042;-68
2022/05/14 03:12:06;;;;;;;52.55;22.30;;;9.20;89.70;;;;;;4823451;29;20134;-68
2022/05/14 03:14:32;;;;;;;47.47;20.30;;;9.20;89.70;;;;;;4824822;29;20406;-68
2022/05/14 03:16:58;;;;;;;56.23;22.80;;;9.20;89.50;;;;;;4799800;29;20055;-68
2022/05/14 03:19:24;;;;;;;46.33;21.23;;;9.20;89.40;;;;;;4824215;29;20062;-68
2022/05/14 03:21:50;;;;;;;46.05;19.77;;;9.20;89.50;;;;;;4806396;29;20057;-68
2022/05/14 03:24:16;;;;;;;50.87;20.80;;;9.10;89.20;;;;;;4810022;29;20050;-68
2022/05/14 03:26:43;;;;;;;54.28;25.45;;;9.20;89.40;;;;;;4812440;29;20133;-68
2022/05/14 03:29:09;;;;;;;51.70;26.75;;;9.20;89.20;;;;;;4830245;29;20465;-68
2022/05/14 03:31:36;;;;;;;56.08;26.27;;;9.20;89.30;;;;;;4811535;29;20046;-68
2022/05/14 03:34:03;;;;;;;52.97;29.63;;;9.10;89.20;;;;;;4805905;29;20112;-69
2022/05/14 03:36:29;;;;;;;45.33;31.77;;;9.10;89.20;;;;;;4849220;29;20062;-68
2022/05/14 03:38:55;;;;;;;43.00;31.48;;;9.10;89.10;;;;;;4801812;29;20070;-68
2022/05/14 03:41:22;;;;;;;45.53;28.57;;;9.10;89.00;;;;;;4827165;29;20144;-68
2022/05/14 03:43:49;;;;;;;48.40;26.50;;;9.00;88.80;;;;;;4823542;29;20375;-68
2022/05/14 03:46:15;;;;;;;49.95;26.25;;;9.00;88.70;;;;;;4819983;29;20137;-68
2022/05/14 03:48:41;;;;;;;42.28;22.75;;;9.00;88.70;;;;;;4818846;29;20039;-68
2022/05/14 03:51:07;;;;;;;47.23;28.10;;;9.00;88.50;;;;;;4820034;29;20500;-68
2022/05/14 03:53:35;;;;;;;45.20;28.60;;;9.00;88.60;;;;;;4823060;29;20416;-69
2022/05/14 03:56:01;;;;;;;40.20;24.13;;;9.10;88.60;;;;;;4826477;29;20478;-68
2022/05/14 03:58:27;;;;;;;49.33;26.73;;;9.10;88.60;;;;;;4823592;29;20049;-68
2022/05/14 04:00:52;;;;;;;48.40;26.10;;;9.10;88.60;;;;;;4826160;29;20389;-68
2022/05/14 04:03:18;;;;;;;49.97;25.20;;;9.10;88.60;;;;;;4831998;29;20052;-68
2022/05/14 04:05:44;;;;;;;46.70;23.77;;;9.20;88.70;;;;;;4802639;29;20482;-68
2022/05/14 04:08:09;;;;;;;46.40;23.50;;;9.20;88.80;;;;;;4826284;29;20053;-68
2022/05/14 04:10:35;;;;;;;38.20;23.97;;;9.20;88.90;;;;;;4820771;29;20058;-68
2022/05/14 04:13:01;;;;;;;43.63;25.77;;;9.20;88.70;;;;;;4817613;29;20050;-68
2022/05/14 04:15:27;;;;;;;49.53;23.45;;;9.30;88.60;;;;;;4805723;29;20463;-68
2022/05/14 04:17:54;;;;;;;44.20;24.30;;;9.40;88.80;;;;;;4852836;29;20050;-68
2022/05/14 04:20:21;;;;;;;40.33;22.92;;;9.40;88.90;;;;;;4848965;29;20314;-68
2022/05/14 04:22:46;;;;;;;39.53;24.75;;;9.50;88.70;;;;;;4804753;29;20137;-68
2022/05/14 04:25:13;;;;;;;33.97;22.90;;;9.50;88.20;;;;;;4826959;29;20501;-69
2022/05/14 04:27:41;;;;;;;45.05;21.30;;;9.50;88.00;;;;;;4817609;29;20042;-69
2022/05/14 04:30:09;;;;;;;46.13;25.42;;;9.50;87.80;;;;;;4817028;29;20077;-69
2022/05/14 04:32:35;;;;;;;35.38;21.02;;;9.50;87.60;;;;;;4817559;29;20141;-69
2022/05/14 04:35:01;;;;;;;36.97;22.53;;;9.60;87.60;;;;;;4818607;29;20140;-68
2022/05/14 04:37:27;;;;;;;40.05;24.00;;;9.70;87.50;;;;;;4803478;29;20373;-68
2022/05/14 04:39:52;;;;;;;46.57;22.03;;;9.80;87.30;;;;;;4802174;29;20499;-68
2022/05/14 04:42:18;;;;;;;44.07;21.07;;;9.80;87.20;;;;;;4835202;29;20052;-68
2022/05/14 04:44:44;;;;;;;38.13;20.77;;;9.90;87.10;;;;;;4835900;29;20402;-68
2022/05/14 04:47:10;;;;;;;36.47;21.23;;;10.00;87.00;;;;;;4825416;29;20054;-68
2022/05/14 04:49:40;;;;;;;34.90;21.83;;;10.10;86.90;;;;;;4820009;29;20050;-68
2022/05/14 04:52:07;;;;;;;40.47;22.10;;;10.20;86.80;;;;;;4819844;29;20103;-68
2022/05/14 04:54:33;;;;;;;36.03;21.10;;;10.30;86.60;;;;;;4807602;29;20459;-68
2022/05/14 04:56:59;;;;;;;36.27;20.80;;;10.50;86.60;;;;;;4818196;29;20090;-68
2022/05/14 04:59:25;;;;;;;41.43;23.60;;;10.60;86.40;;;;;;4851751;29;20046;-68
2022/05/14 05:04:39;;;;;;;40.55;24.48;;;10.90;85.90;;;;;;4816603;29;20050;-68
2022/05/14 05:07:05;;;;;;;40.00;25.13;;;11.00;85.70;;;;;;4816680;29;20376;-68
2022/05/14 05:09:32;;;;;;;37.23;23.20;;;11.30;85.60;;;;;;4824022;29;20052;-68
2022/05/14 05:11:58;;;;;;;34.95;27.15;;;11.80;85.90;;;;;;4821524;29;20059;-68
2022/05/14 05:14:24;;;;;;;37.47;32.37;;;12.50;84.90;;;;;;4816124;29;20404;-69
2022/05/14 05:16:50;;;;;;;35.63;28.90;;;13.20;83.30;;;;;;4811824;29;20449;-68
2022/05/14 05:19:16;;;;;;;41.30;37.00;;;13.80;79.30;;;;;;4810305;29;20311;-68
2022/05/14 05:21:42;;;;;;;40.07;36.40;;;14.30;78.20;;;;;;4808387;29;20295;-68
2022/05/14 05:24:09;;;;;;;38.87;35.20;;;14.80;76.70;;;;;;4821835;29;20367;-68
2022/05/14 05:26:36;;;;;;;45.60;41.07;;;15.20;74.50;;;;;;4820823;29;20241;-69
2022/05/14 05:29:03;;;;;;;54.50;49.67;;;15.50;73.30;;;;;;4845950;29;20296;-69
2022/05/14 05:31:31;;;;;;;52.00;47.30;;;15.80;72.50;;;;;;4824143;29;20306;-69
2022/05/14 05:33:57;;;;;;;54.97;50.60;;;16.10;71.60;;;;;;4824499;29;20310;-69
2022/05/14 05:36:23;;;;;;;62.73;58.27;;;16.50;70.90;;;;;;4815980;29;21129;-69
2022/05/14 05:38:51;;;;;;;72.13;66.83;;;16.90;70.00;;;;;;4845832;29;20390;-68
2022/05/14 05:41:17;;;;;;;76.67;71.13;;;17.20;68.90;;;;;;4834619;29;20082;-69
2022/05/14 05:43:43;;;;;;;86.87;81.63;;;17.30;66.80;;;;;;4821177;29;20409;-69
2022/05/14 05:46:11;;;;;;;85.23;79.33;;;17.50;67.20;;;;;;4818298;29;20444;-69
2022/05/14 05:48:37;;;;;;;74.13;68.93;;;17.70;66.40;;;;;;4817453;29;20359;-69
2022/05/14 05:51:03;;;;;;;72.50;67.80;;;17.80;65.90;;;;;;4802756;29;20295;-69
2022/05/14 05:58:58;;;;;;;70.97;66.00;;;18.10;64.10;;;;;;4844707;29;20058;-69
2022/05/14 06:01:24;;;;;;;67.90;63.00;;;18.10;63.30;;;;;;4817133;29;20306;-69
2022/05/14 06:03:51;;;;;;;70.97;66.27;;;18.20;63.00;;;;;;4833048;29;20046;-68
2022/05/14 06:06:18;;;;;;;75.90;71.27;;;18.20;63.20;;;;;;4815286;29;20046;-68
2022/05/14 06:08:43;;;;;;;54.30;50.50;;;18.30;63.40;;;;;;4829970;29;20344;-68
2022/05/14 06:11:09;;;;;;;61.53;57.20;;;18.50;62.40;;;;;;4816140;29;20340;-68
2022/05/14 06:13:35;;;;;;;63.97;59.20;;;18.70;62.50;;;;;;4830561;29;20452;-69
2022/05/14 06:16:01;;;;;;;57.73;53.37;;;18.80;62.30;;;;;;4827311;29;20054;-69
2022/05/14 06:18:27;;;;;;;70.13;65.10;;;18.70;61.50;;;;;;4851443;29;20419;-69
2022/05/14 06:20:53;;;;;;;63.80;59.03;;;18.80;61.20;;;;;;4821837;29;20056;-69
2022/05/14 06:23:19;;;;;;;68.27;63.07;;;18.80;60.70;;;;;;4842528;29;20284;-69
2022/05/14 06:25:45;;;;;;;62.80;58.23;;;18.70;60.80;;;;;;4830879;29;20045;-68
2022/05/14 06:28:11;;;;;;;135.27;126.50;;;18.70;61.00;;;;;;4821022;29;20302;-69
2022/05/14 06:30:41;;;;;;;88.47;82.83;;;18.70;60.50;;;;;;4819537;29;20366;-69
2022/05/14 06:33:08;;;;;;;139.90;131.33;;;18.70;59.80;;;;;;4828442;29;20045;-69
2022/05/14 06:35:35;;;;;;;78.97;73.03;;;18.40;59.30;;;;;;4807288;29;20356;-68
2022/05/14 06:38:02;;;;;;;92.40;86.33;;;18.00;60.50;;;;;;4802761;29;20596;-69
2022/05/14 06:40:27;;;;;;;74.70;69.63;;;18.00;60.30;;;;;;4825878;29;20404;-68
2022/05/14 06:42:53;;;;;;;99.27;92.87;;;18.10;60.40;;;;;;4819165;29;20303;-69
2022/05/14 06:45:19;;;;;;;90.87;85.03;;;18.20;60.40;;;;;;4818160;29;20046;-68
2022/05/14 06:47:45;;;;;;;97.60;91.13;;;18.20;60.60;;;;;;4849377;29;20050;-69
2022/05/14 06:50:11;;;;;;;113.10;105.83;;;18.30;60.80;;;;;;4834084;29;20299;-69
2022/05/14 06:52:41;;;;;;;85.63;80.17;;;18.30;60.40;;;;;;4849208;29;20046;-69
2022/05/14 06:55:10;;;;;;;74.50;69.60;;;18.20;60.30;;;;;;4823155;29;20776;-68
2022/05/14 06:57:37;;;;;;;70.63;65.80;;;18.10;60.60;;;;;;4821398;29;20315;-69
2022/05/14 07:00:05;;;;;;;70.07;65.20;;;18.00;61.20;;;;;;4859378;29;20372;-69
2022/05/14 07:02:32;;;;;;;65.73;60.37;;;17.80;61.50;;;;;;4805603;29;20526;-69
2022/05/14 07:07:43;;;;;;;238.40;223.53;;;17.20;61.80;;;;;;4844567;29;20326;-69
2022/05/14 07:10:09;;;;;;;70.37;65.47;;;16.80;62.80;;;;;;4820286;29;20310;-69
2022/05/14 07:12:36;;;;;;;79.63;74.17;;;16.50;62.80;;;;;;4833648;29;20819;-69
2022/05/14 07:15:02;;;;;;;65.03;60.07;;;16.30;63.50;;;;;;4818733;29;20062;-69
2022/05/14 07:17:28;;;;;;;54.50;50.53;;;16.20;63.20;;;;;;4817361;29;20754;-68
2022/05/14 07:19:54;;;;;;;56.87;52.70;;;16.10;63.80;;;;;;4818094;29;20873;-69
2022/05/14 07:22:20;;;;;;;55.63;50.97;;;16.10;64.00;;;;;;4833795;29;20304;-69
2022/05/14 07:24:47;;;;;;;53.60;49.47;;;16.10;64.10;;;;;;4830243;29;20043;-68
2022/05/14 07:27:13;;;;;;;62.23;57.93;;;16.10;64.10;;;;;;4817112;29;20376;-69
2022/05/14 07:29:41;;;;;;;54.67;50.17;;;16.20;63.80;;;;;;4802153;29;20363;-69
2022/05/14 07:32:15;;;;;;;76.47;70.87;;;16.20;63.40;;;;;;4822779;29;20291;-69
2022/05/14 07:34:41;;;;;;;62.20;58.00;;;16.30;63.10;;;;;;4845096;29;20299;-69
2022/05/14 07:37:16;;;;;;;100.97;94.87;;;16.30;62.80;;;;;;4803829;29;20332;-69
2022/05/14 07:40:06;;;;;;;58.80;54.70;;;16.40;62.30;;;;;;4847577;29;20416;-69
2022/05/14 07:42:43;;;;;;;55.17;51.10;;;16.40;62.50;;;;;;4819995;29;20050;-69
2022/05/14 07:45:15;;;;;;;72.53;66.87;;;16.50;62.90;;;;;;4823259;29;20387;-69
2022/05/14 07:47:41;;;;;;;69.63;64.33;;;16.60;62.50;;;;;;4821763;29;20657;-69
2022/05/14 07:50:07;;;;;;;60.03;55.37;;;16.60;62.10;;;;;;4824163;29;20868;-69
2022/05/14 07:52:34;;;;;;;91.67;85.77;;;16.60;62.40;;;;;;4801934;29;20287;-69
2022/05/14 07:55:00;;;;;;;76.13;70.50;;;16.80;61.90;;;;;;4820934;29;20327;-69
2022/05/14 07:57:26;;;;;;;146.13;137.27;;;17.00;61.80;;;;;;4807268;29;20354;-69
2022/05/14 07:59:51;;;;;;;88.33;83.07;;;17.10;61.40;;;;;;4802709;29;20057;-69
2022/05/14 08:02:26;;;;;;;109.27;102.57;;;17.20;60.70;;;;;;4817405;29;20120;-69
2022/05/14 08:04:52;;;;;;;91.93;85.93;;;17.30;60.30;;;;;;4821869;29;20976;-69
2022/05/14 08:07:18;;;;;;;107.70;100.90;;;17.30;60.00;;;;;;4821483;29;20448;-69
2022/05/14 08:09:44;;;;;;;302.73;283.03;;;17.50;60.40;;;;;;4847144;29;20835;-69
2022/05/14 08:12:13;;;;;;;96.43;90.73;;;17.60;60.30;;;;;;4805679;29;20370;-69
2022/05/14 08:14:39;;;;;;;112.70;105.57;;;17.50;59.50;;;;;;4846507;29;20388;-69
2022/05/14 08:17:10;;;;;;;102.00;95.63;;;17.50;59.90;;;;;;4801603;29;20304;-69
2022/05/14 08:19:36;;;;;;;106.57;100.20;;;17.70;60.50;;;;;;4803897;29;20862;-69
2022/05/14 08:24:48;;;;;;;69.90;65.20;;;17.90;59.60;;;;;;4847524;29;20345;-69
2022/05/14 08:27:14;;;;;;;141.73;132.53;;;18.00;59.70;;;;;;4823096;29;20816;-69
2022/05/14 08:29:41;;;;;;;96.80;90.50;;;18.10;59.00;;;;;;4812486;29;20057;-69
2022/05/14 08:32:07;;;;;;;93.97;87.83;;;18.20;59.10;;;;;;4798044;29;20660;-69
2022/05/14 08:34:33;;;;;;;79.03;73.47;;;18.40;59.40;;;;;;4826095;29;20714;-68
2022/05/14 08:36:59;;;;;;;79.17;73.87;;;18.50;58.90;;;;;;4815453;29;20295;-68
2022/05/14 08:39:27;;;;;;;117.90;110.43;;;18.70;58.30;;;;;;4799587;29;20057;-69
2022/05/14 08:41:55;;;;;;;81.93;75.90;;;18.80;58.10;;;;;;4846265;29;20042;-69
2022/05/14 08:44:26;;;;;;;64.50;59.80;;;18.70;57.10;;;;;;4814676;29;21752;-69
2022/05/14 08:46:55;;;;;;;79.47;73.57;;;18.60;57.70;;;;;;4837225;29;20378;-69
2022/05/14 08:49:42;;;;;;;51.00;46.90;;;18.50;56.60;;;;;;4804831;29;20287;-69
2022/05/14 08:52:19;;;;;;;69.33;64.30;;;18.50;56.50;;;;;;4843272;29;20327;-69
2022/05/14 08:54:45;;;;;;;56.90;52.63;;;18.60;57.40;;;;;;4817688;29;20772;-69
2022/05/14 08:57:25;;;;;;;50.83;46.33;;;18.60;56.30;;;;;;4831629;29;20042;-68
2022/05/14 08:59:55;;;;;;;118.33;109.47;;;18.60;56.80;;;;;;4815032;29;20053;-69
2022/05/14 09:02:35;;;;;;;54.13;49.77;;;18.70;54.80;;;;;;4797467;29;20303;-68
2022/05/14 09:05:05;;;;;;;61.83;57.60;;;18.70;55.40;;;;;;4842116;29;20662;-68
2022/05/14 09:07:32;;;;;;;45.70;41.87;;;18.80;56.20;;;;;;4846300;29;20302;-68
2022/05/14 09:09:58;;;;;;;60.40;55.77;;;19.00;55.60;;;;;;4815529;29;21358;-68
2022/05/14 09:12:30;;;;;;;100.87;93.50;;;19.10;55.00;;;;;;4800828;29;20296;-69
2022/05/14 09:15:10;;;;;;;32.00;27.90;;;19.00;53.80;;;;;;4813520;29;20649;-69
2022/05/14 09:17:36;;;;;;;43.30;39.57;;;18.90;54.40;;;;;;4827405;29;20046;-69
2022/05/14 09:20:02;;;;;;;47.03;43.17;;;18.90;54.80;;;;;;4810820;29;20859;-69
2022/05/14 09:22:47;;;;;;;83.17;77.13;;;18.90;55.50;;;;;;4799827;29;20050;-69
2022/05/14 09:25:28;;;;;;;42.60;38.77;;;19.10;55.10;;;;;;4841782;29;20046;-68
2022/05/14 09:28:05;;;;;;;45.73;41.60;;;19.20;54.70;;;;;;4815107;29;20134;-68
2022/05/14 09:30:46;;;;;;;196.47;182.30;;;19.10;54.30;;;;;;4820719;29;20050;-68
2022/05/14 09:33:34;;;;;;;39.03;34.97;;;19.00;54.40;;;;;;4847063;29;20283;-69
2022/05/14 09:36:01;;;;;;;54.13;49.43;;;19.00;54.80;;;;;;4792504;29;20793;-68
2022/05/14 09:38:28;;;;;;;45.37;41.23;;;19.10;55.20;;;;;;4826982;29;20693;-69
2022/05/14 09:41:06;;;;;;;35.93;32.57;;;19.20;54.70;;;;;;4821580;29;20716;-69
2022/05/14 09:43:36;;;;;;;48.87;44.60;;;19.30;54.40;;;;;;4833058;29;21300;-69
2022/05/14 09:46:10;;;;;;;47.30;43.10;;;19.40;53.80;;;;;;4818583;29;20106;-69
2022/05/14 09:48:51;;;;;;;30.00;27.07;;;19.50;53.20;;;;;;4821160;29;20050;-69
2022/05/14 09:51:30;;;;;;;40.80;34.10;;;19.50;53.10;;;;;;4801758;29;20599;-69
2022/05/14 09:54:08;;;;;;;35.07;28.57;;;19.60;54.30;;;;;;4806804;29;20041;-69
2022/05/14 09:57:00;;;;;;;37.27;33.33;;;19.60;53.20;;;;;;4845244;29;20298;-69
2022/05/14 09:59:53;;;;;;;168.90;157.17;;;19.50;53.80;;;;;;4812458;29;20512;-69
2022/05/14 10:02:56;;;;;;;33.33;29.87;;;19.50;52.90;;;;;;4801206;29;20050;-69
2022/05/14 10:05:43;;;;;;;43.00;38.57;;;19.10;53.50;;;;;;4817329;29;20508;-69
2022/05/14 10:08:30;;;;;;;26.60;19.80;;;19.10;53.80;;;;;;4802375;29;20054;-69
2022/05/14 10:11:04;;;;;;;119.77;110.23;;;19.30;53.30;;;;;;4846052;29;20038;-69
2022/05/14 10:13:38;;;;;;;79.60;73.17;;;19.30;53.90;;;;;;4817881;29;20050;-69
2022/05/14 10:16:17;;;;;;;29.90;26.80;;;19.50;53.10;;;;;;4828008;29;20471;-68
2022/05/14 10:18:58;;;;;;;29.53;16.03;;;19.50;52.90;;;;;;4851646;29;20528;-69
2022/05/14 10:21:27;;;;;;;53.03;48.27;;;19.70;53.00;;;;;;4840638;29;20047;-68
2022/05/14 10:28:20;;;;;;;29.50;16.30;;;19.80;52.00;;;;;;4826854;29;20050;-68
2022/05/14 10:31:12;;;;;;;33.77;30.50;;;20.00;51.90;;;;;;4764967;30;20047;-69
2022/05/14 10:33:38;;;;;;;34.97;29.20;;;20.10;51.60;;;;;;4779495;30;20031;-69
2022/05/14 10:36:22;;;;;;;24.93;18.90;;;20.20;52.20;;;;;;4799999;29;20568;-69
2022/05/14 10:38:53;;;;;;;29.38;23.48;;;20.30;51.80;;;;;;4821443;29;20488;-69
2022/05/14 10:41:31;;;;;;;28.87;23.60;;;20.30;50.30;;;;;;4820621;29;20034;-69
2022/05/14 10:44:04;;;;;;;24.73;18.80;;;20.40;49.70;;;;;;4849758;29;20062;-69
2022/05/14 10:46:34;;;;;;;32.63;17.73;;;20.40;51.10;;;;;;4852268;29;20053;-69
2022/05/14 10:49:35;;;;;;;29.70;25.87;;;20.60;50.00;;;;;;4821681;29;20043;-69
2022/05/14 10:52:01;;;;;;;28.77;20.70;;;20.60;48.60;;;;;;4841438;29;20105;-69
2022/05/14 10:54:31;;;;;;;37.20;31.37;;;20.40;49.90;;;;;;4823061;29;20053;-69
2022/05/14 10:57:01;;;;;;;30.63;22.90;;;20.30;50.10;;;;;;4811155;29;20054;-69
2022/05/14 10:59:39;;;;;;;38.33;34.33;;;20.10;50.30;;;;;;4829127;29;20557;-69
2022/05/14 11:02:07;;;;;;;28.83;25.83;;;20.00;51.60;;;;;;4822543;29;20090;-69
2022/05/14 11:04:47;;;;;;;28.80;17.07;;;20.10;52.60;;;;;;4822454;29;20404;-69
2022/05/14 11:07:27;;;;;;;26.77;21.07;;;20.30;51.50;;;;;;4821781;29;20746;-69
2022/05/14 11:09:53;;;;;;;28.30;19.90;;;20.60;50.30;;;;;;4850318;29;20129;-69
2022/05/14 11:12:19;;;;;;;38.43;34.40;;;20.50;51.00;;;;;;4798909;29;20125;-69
2022/05/14 11:14:57;;;;;;;27.60;21.27;;;20.70;49.70;;;;;;4826221;29;20551;-69
2022/05/14 11:17:36;;;;;;;26.87;13.37;;;20.80;49.20;;;;;;4850928;29;20103;-69
2022/05/14 11:20:04;;;;;;;29.13;17.90;;;20.90;49.10;;;;;;4815246;29;20054;-69
2022/05/14 11:22:35;;;;;;;28.53;24.90;;;20.70;48.50;;;;;;4825850;29;20041;-69
2022/05/14 11:25:22;;;;;;;23.37;11.97;;;20.60;48.00;;;;;;4821933;29;20053;-69
2022/05/14 11:28:17;;;;;;;23.63;11.07;;;20.50;48.80;;;;;;4821669;29;20058;-69
2022/05/14 11:30:53;;;;;;;1999.90;145.13;;;20.30;48.80;;;;;;4821780;29;20050;-69
2022/05/14 11:33:27;;;;;;;27.03;11.57;;;20.30;49.80;;;;;;4803218;29;20467;-69
2022/05/14 11:36:04;;;;;;;26.60;20.00;;;20.20;49.50;;;;;;4817327;29;20042;-69
2022/05/14 11:38:34;;;;;;;34.53;31.00;;;20.20;49.20;;;;;;4817638;29;20165;-69
2022/05/14 11:41:09;;;;;;;35.20;31.30;;;20.40;49.60;;;;;;4815440;29;20149;-69
2022/05/14 11:43:48;;;;;;;;;;;20.50;48.70;;;;;;4849018;29;20168;-69
2022/05/14 11:46:44;;;;;;;26.17;18.07;;;20.70;48.60;;;;;;4817906;29;20375;-69
2022/05/14 11:49:12;;;;;;;30.93;26.67;;;20.80;49.30;;;;;;4831021;29;20141;-69
2022/05/14 11:52:02;;;;;;;31.73;23.53;;;21.00;49.10;;;;;;4848358;29;20050;-69
2022/05/14 11:54:43;;;;;;;28.70;21.07;;;21.10;48.10;;;;;;4848452;29;20774;-69
2022/05/14 11:57:18;;;;;;;25.27;15.07;;;21.00;48.50;;;;;;4849948;29;20430;-70
2022/05/14 12:00:03;;;;;;;25.63;22.20;;;21.00;48.70;;;;;;4818461;29;20042;-70
2022/05/14 12:02:47;;;;;;;22.30;15.05;;;21.20;48.50;;;;;;4850576;29;20423;-70
2022/05/14 12:05:28;;;;;;;32.13;14.93;;;21.30;48.10;;;;;;4818115;29;20050;-69
2022/05/14 12:08:20;;;;;;;68.40;62.20;;;21.40;47.60;;;;;;4817282;29;20069;-69
2022/05/14 12:10:57;;;;;;;29.23;23.30;;;21.50;47.70;;;;;;4849300;29;20088;-70
2022/05/14 12:13:35;;;;;;;65.37;60.30;;;21.60;48.40;;;;;;4847726;29;20042;-69
2022/05/14 12:16:01;;;;;;;26.70;19.37;;;21.60;46.50;;;;;;4826569;29;20054;-69
2022/05/14 12:18:27;;;;;;;24.23;21.57;;;21.40;46.80;;;;;;4844345;29;20068;-69
2022/05/14 12:21:16;;;;;;;26.30;19.53;;;21.30;46.90;;;;;;4816568;29;20457;-69
2022/05/14 12:23:45;;;;;;;31.97;28.73;;;21.40;47.70;;;;;;4816543;29;20594;-69
2022/05/14 12:26:31;;;;;;;27.70;19.80;;;21.50;48.00;;;;;;4815579;29;20403;-69
2022/05/14 12:29:00;;;;;;;56.77;51.77;;;21.60;46.80;;;;;;4818545;29;20550;-69
2022/05/14 12:34:18;;;;;;;43.10;39.37;;;21.40;47.90;;;;;;4846739;29;20527;-69
2022/05/14 12:36:49;;;;;;;26.23;18.37;;;21.40;47.00;;;;;;4801208;29;20519;-69
2022/05/14 12:39:31;;;;;;;28.93;24.93;;;21.30;47.10;;;;;;4847306;29;20133;-69
2022/05/14 12:42:05;;;;;;;37.30;33.33;;;21.00;46.60;;;;;;4817128;29;20050;-69
2022/05/14 12:44:32;;;;;;;;;;;20.90;47.50;;;;;;4832781;29;20046;-69
2022/05/14 12:47:01;;;;;;;83.07;76.40;;;20.80;47.70;;;;;;4816229;29;20035;-69
2022/05/14 12:49:44;;;;;;;21.47;10.57;;;20.80;49.10;;;;;;4830666;29;20038;-69
2022/05/14 12:52:19;;;;;;;25.57;14.07;;;21.00;48.50;;;;;;4829027;29;20093;-69
2022/05/14 12:54:51;;;;;;;;;;;21.10;49.00;;;;;;4799717;29;20054;-70
2022/05/14 12:57:18;;;;;;;30.60;27.37;;;21.30;47.70;;;;;;4833391;29;20630;-69
2022/05/14 12:59:44;;;;;;;29.80;26.63;;;21.30;46.70;;;;;;4812229;29;20082;-69
2022/05/14 13:02:31;;;;;;;36.87;24.40;;;21.40;47.00;;;;;;4798946;29;20091;-70
2022/05/14 13:05:12;;;;;;;33.20;29.63;;;21.40;47.00;;;;;;4815496;29;20046;-69